sensor_id;sensor_type;location;lat;lon;timestamp;P1;durP1;ratioP1;P2;durP2;ratioP2
40755;SDS011;26461;45.630;9.418;2023-09-19T00:01:34;7.10;;;2.67;;
40755;SDS011;26461;45.630;9.418;2023-09-19T00:04:47;3.30;;;2.30;;
40755;SDS011;26461;45.630;9.418;2023-09-19T00:07:56;3.77;;;3.37;;
40755;SDS011;26461;45.630;9.418;2023-09-19T00:11:07;8.23;;;2.90;;
40755;SDS011;26461;45.630;9.418;2023-09-19T00:14:25;3.70;;;3.00;;
40755;SDS011;26461;45.630;9.418;2023-09-19T00:17:42;4.67;;;2.60;;
40755;SDS011;26461;45.630;9.418;2023-09-19T00:20:50;5.33;;;2.53;;
40755;SDS011;26461;45.630;9.418;2023-09-19T00:23:56;3.97;;;2.77;;
40755;SDS011;26461;45.630;9.418;2023-09-19T00:27:04;3.60;;;2.90;;
40755;SDS011;26461;45.630;9.418;2023-09-19T00:30:11;2.63;;;2.40;;
40755;SDS011;26461;45.630;9.418;2023-09-19T00:33:31;4.20;;;2.50;;
40755;SDS011;26461;45.630;9.418;2023-09-19T00:36:42;4.40;;;2.80;;
40755;SDS011;26461;45.630;9.418;2023-09-19T00:39:53;4.70;;;2.60;;
40755;SDS011;26461;45.630;9.418;2023-09-19T00:42:58;7.07;;;2.57;;
40755;SDS011;26461;45.630;9.418;2023-09-19T00:46:05;4.03;;;3.23;;
40755;SDS011;26461;45.630;9.418;2023-09-19T00:49:17;3.93;;;2.80;;
40755;SDS011;26461;45.630;9.418;2023-09-19T00:52:25;3.73;;;3.30;;
40755;SDS011;26461;45.630;9.418;2023-09-19T00:55:40;8.83;;;3.27;;
40755;SDS011;26461;45.630;9.418;2023-09-19T00:58:52;3.80;;;2.57;;
40755;SDS011;26461;45.630;9.418;2023-09-19T01:02:05;7.80;;;2.50;;
40755;SDS011;26461;45.630;9.418;2023-09-19T01:05:21;6.40;;;2.83;;
40755;SDS011;26461;45.630;9.418;2023-09-19T01:08:37;3.13;;;2.60;;
40755;SDS011;26461;45.630;9.418;2023-09-19T01:11:42;6.43;;;3.00;;
40755;SDS011;26461;45.630;9.418;2023-09-19T01:14:59;3.47;;;2.90;;
40755;SDS011;26461;45.630;9.418;2023-09-19T01:18:40;3.40;;;2.47;;
40755;SDS011;26461;45.630;9.418;2023-09-19T01:22:03;5.50;;;2.80;;
40755;SDS011;26461;45.630;9.418;2023-09-19T01:32:44;8.23;;;3.37;;
40755;SDS011;26461;45.630;9.418;2023-09-19T01:35:55;10.83;;;3.23;;
40755;SDS011;26461;45.630;9.418;2023-09-19T01:39:07;4.00;;;2.73;;
40755;SDS011;26461;45.630;9.418;2023-09-19T01:42:24;5.97;;;3.20;;
40755;SDS011;26461;45.630;9.418;2023-09-19T01:45:56;4.97;;;2.83;;
40755;SDS011;26461;45.630;9.418;2023-09-19T01:49:22;3.83;;;3.23;;
40755;SDS011;26461;45.630;9.418;2023-09-19T01:52:57;9.60;;;4.63;;
40755;SDS011;26461;45.630;9.418;2023-09-19T01:56:09;5.30;;;3.43;;
40755;SDS011;26461;45.630;9.418;2023-09-19T01:59:27;12.30;;;3.60;;
40755;SDS011;26461;45.630;9.418;2023-09-19T02:02:42;4.47;;;2.83;;
40755;SDS011;26461;45.630;9.418;2023-09-19T02:05:52;6.63;;;3.23;;
40755;SDS011;26461;45.630;9.418;2023-09-19T02:08:58;3.27;;;2.67;;
40755;SDS011;26461;45.630;9.418;2023-09-19T02:12:04;5.50;;;3.40;;
40755;SDS011;26461;45.630;9.418;2023-09-19T02:15:10;8.63;;;3.47;;
40755;SDS011;26461;45.630;9.418;2023-09-19T02:18:15;4.20;;;2.55;;
40755;SDS011;26461;45.630;9.418;2023-09-19T02:21:21;4.60;;;3.40;;
40755;SDS011;26461;45.630;9.418;2023-09-19T02:24:27;5.57;;;3.30;;
40755;SDS011;26461;45.630;9.418;2023-09-19T02:27:32;3.73;;;2.77;;
40755;SDS011;26461;45.630;9.418;2023-09-19T02:30:38;4.60;;;3.03;;
40755;SDS011;26461;45.630;9.418;2023-09-19T02:33:43;4.63;;;2.40;;
40755;SDS011;26461;45.630;9.418;2023-09-19T02:36:51;7.23;;;3.40;;
40755;SDS011;26461;45.630;9.418;2023-09-19T02:40:00;7.67;;;3.50;;
40755;SDS011;26461;45.630;9.418;2023-09-19T02:43:05;6.20;;;3.50;;
40755;SDS011;26461;45.630;9.418;2023-09-19T02:46:17;10.03;;;3.30;;
40755;SDS011;26461;45.630;9.418;2023-09-19T02:49:28;5.60;;;3.13;;
40755;SDS011;26461;45.630;9.418;2023-09-19T02:52:40;6.83;;;3.60;;
40755;SDS011;26461;45.630;9.418;2023-09-19T02:55:49;5.80;;;4.03;;
40755;SDS011;26461;45.630;9.418;2023-09-19T02:58:58;5.80;;;3.50;;
40755;SDS011;26461;45.630;9.418;2023-09-19T03:02:05;6.80;;;3.30;;
40755;SDS011;26461;45.630;9.418;2023-09-19T03:05:11;4.80;;;2.77;;
40755;SDS011;26461;45.630;9.418;2023-09-19T03:08:16;4.40;;;2.63;;
40755;SDS011;26461;45.630;9.418;2023-09-19T03:11:23;4.90;;;3.77;;
40755;SDS011;26461;45.630;9.418;2023-09-19T03:14:33;4.70;;;2.73;;
40755;SDS011;26461;45.630;9.418;2023-09-19T03:17:44;3.50;;;2.73;;
40755;SDS011;26461;45.630;9.418;2023-09-19T03:20:55;4.30;;;2.80;;
40755;SDS011;26461;45.630;9.418;2023-09-19T03:24:06;4.60;;;2.37;;
40755;SDS011;26461;45.630;9.418;2023-09-19T03:27:17;4.83;;;2.83;;
40755;SDS011;26461;45.630;9.418;2023-09-19T03:30:23;3.63;;;2.53;;
40755;SDS011;26461;45.630;9.418;2023-09-19T03:33:28;4.40;;;2.93;;
40755;SDS011;26461;45.630;9.418;2023-09-19T03:36:37;3.30;;;2.50;;
40755;SDS011;26461;45.630;9.418;2023-09-19T03:39:42;3.57;;;2.40;;
40755;SDS011;26461;45.630;9.418;2023-09-19T03:42:48;3.47;;;2.67;;
40755;SDS011;26461;45.630;9.418;2023-09-19T03:45:54;5.13;;;2.93;;
40755;SDS011;26461;45.630;9.418;2023-09-19T03:49:04;3.23;;;2.17;;
40755;SDS011;26461;45.630;9.418;2023-09-19T03:52:10;3.33;;;2.70;;
40755;SDS011;26461;45.630;9.418;2023-09-19T03:55:16;3.87;;;2.47;;
40755;SDS011;26461;45.630;9.418;2023-09-19T03:58:26;5.90;;;2.53;;
40755;SDS011;26461;45.630;9.418;2023-09-19T04:01:31;3.23;;;2.67;;
40755;SDS011;26461;45.630;9.418;2023-09-19T04:04:41;4.20;;;2.90;;
40755;SDS011;26461;45.630;9.418;2023-09-19T04:07:50;3.47;;;2.87;;
40755;SDS011;26461;45.630;9.418;2023-09-19T04:11:01;7.73;;;3.90;;
40755;SDS011;26461;45.630;9.418;2023-09-19T04:14:06;4.17;;;2.80;;
40755;SDS011;26461;45.630;9.418;2023-09-19T04:17:17;2.90;;;2.53;;
40755;SDS011;26461;45.630;9.418;2023-09-19T04:20:23;4.23;;;3.10;;
40755;SDS011;26461;45.630;9.418;2023-09-19T04:23:28;5.10;;;2.97;;
40755;SDS011;26461;45.630;9.418;2023-09-19T04:26:34;4.83;;;3.20;;
40755;SDS011;26461;45.630;9.418;2023-09-19T04:29:39;4.57;;;3.30;;
40755;SDS011;26461;45.630;9.418;2023-09-19T04:32:51;4.03;;;2.90;;
40755;SDS011;26461;45.630;9.418;2023-09-19T04:36:02;3.85;;;2.75;;
40755;SDS011;26461;45.630;9.418;2023-09-19T04:39:14;3.80;;;2.53;;
40755;SDS011;26461;45.630;9.418;2023-09-19T04:42:21;4.70;;;3.03;;
40755;SDS011;26461;45.630;9.418;2023-09-19T04:45:29;3.63;;;2.50;;
40755;SDS011;26461;45.630;9.418;2023-09-19T04:48:35;6.40;;;3.20;;
40755;SDS011;26461;45.630;9.418;2023-09-19T04:51:40;6.47;;;3.50;;
40755;SDS011;26461;45.630;9.418;2023-09-19T04:54:47;7.57;;;3.70;;
40755;SDS011;26461;45.630;9.418;2023-09-19T04:57:53;3.67;;;3.47;;
40755;SDS011;26461;45.630;9.418;2023-09-19T05:01:05;8.90;;;3.10;;
40755;SDS011;26461;45.630;9.418;2023-09-19T05:04:10;4.10;;;3.20;;
40755;SDS011;26461;45.630;9.418;2023-09-19T05:07:21;6.80;;;3.83;;
40755;SDS011;26461;45.630;9.418;2023-09-19T05:10:33;5.43;;;3.70;;
40755;SDS011;26461;45.630;9.418;2023-09-19T05:13:42;6.70;;;3.45;;
40755;SDS011;26461;45.630;9.418;2023-09-19T05:16:48;6.43;;;3.97;;
40755;SDS011;26461;45.630;9.418;2023-09-19T05:19:53;5.10;;;4.10;;
40755;SDS011;26461;45.630;9.418;2023-09-19T05:23:03;5.90;;;3.08;;
40755;SDS011;26461;45.630;9.418;2023-09-19T05:26:12;4.53;;;3.93;;
40755;SDS011;26461;45.630;9.418;2023-09-19T05:29:17;9.07;;;3.97;;
40755;SDS011;26461;45.630;9.418;2023-09-19T05:32:28;7.03;;;4.13;;
40755;SDS011;26461;45.630;9.418;2023-09-19T05:35:38;4.63;;;3.57;;
40755;SDS011;26461;45.630;9.418;2023-09-19T05:38:49;9.63;;;7.43;;
40755;SDS011;26461;45.630;9.418;2023-09-19T05:42:00;9.50;;;5.67;;
40755;SDS011;26461;45.630;9.418;2023-09-19T05:45:06;8.57;;;4.50;;
40755;SDS011;26461;45.630;9.418;2023-09-19T05:48:16;9.70;;;4.33;;
40755;SDS011;26461;45.630;9.418;2023-09-19T05:51:22;12.30;;;5.63;;
40755;SDS011;26461;45.630;9.418;2023-09-19T05:54:27;11.70;;;5.53;;
40755;SDS011;26461;45.630;9.418;2023-09-19T05:57:33;9.03;;;5.93;;
40755;SDS011;26461;45.630;9.418;2023-09-19T06:00:44;9.73;;;5.73;;
40755;SDS011;26461;45.630;9.418;2023-09-19T06:03:57;10.50;;;7.37;;
40755;SDS011;26461;45.630;9.418;2023-09-19T06:07:04;13.00;;;5.87;;
40755;SDS011;26461;45.630;9.418;2023-09-19T06:10:10;6.53;;;5.00;;
40755;SDS011;26461;45.630;9.418;2023-09-19T06:13:15;6.40;;;4.90;;
40755;SDS011;26461;45.630;9.418;2023-09-19T06:16:21;8.27;;;3.90;;
40755;SDS011;26461;45.630;9.418;2023-09-19T06:19:26;5.40;;;3.50;;
40755;SDS011;26461;45.630;9.418;2023-09-19T06:22:32;5.53;;;3.30;;
40755;SDS011;26461;45.630;9.418;2023-09-19T06:25:37;5.47;;;3.57;;
40755;SDS011;26461;45.630;9.418;2023-09-19T06:28:47;5.47;;;3.93;;
40755;SDS011;26461;45.630;9.418;2023-09-19T06:31:53;4.70;;;4.40;;
40755;SDS011;26461;45.630;9.418;2023-09-19T06:34:58;6.67;;;4.27;;
40755;SDS011;26461;45.630;9.418;2023-09-19T06:38:04;5.73;;;3.97;;
40755;SDS011;26461;45.630;9.418;2023-09-19T06:41:10;10.63;;;4.80;;
40755;SDS011;26461;45.630;9.418;2023-09-19T06:44:22;10.30;;;6.00;;
40755;SDS011;26461;45.630;9.418;2023-09-19T06:47:28;7.50;;;4.80;;
40755;SDS011;26461;45.630;9.418;2023-09-19T06:50:34;8.73;;;5.80;;
40755;SDS011;26461;45.630;9.418;2023-09-19T06:53:40;7.33;;;4.37;;
40755;SDS011;26461;45.630;9.418;2023-09-19T06:56:46;9.40;;;4.37;;
40755;SDS011;26461;45.630;9.418;2023-09-19T06:59:51;5.40;;;4.00;;
40755;SDS011;26461;45.630;9.418;2023-09-19T07:03:02;6.83;;;4.00;;
40755;SDS011;26461;45.630;9.418;2023-09-19T07:06:17;7.10;;;4.60;;
40755;SDS011;26461;45.630;9.418;2023-09-19T07:12:44;6.07;;;4.37;;
40755;SDS011;26461;45.630;9.418;2023-09-19T07:15:49;6.87;;;5.10;;
40755;SDS011;26461;45.630;9.418;2023-09-19T07:18:58;5.93;;;4.57;;
40755;SDS011;26461;45.630;9.418;2023-09-19T07:22:03;10.87;;;4.40;;
40755;SDS011;26461;45.630;9.418;2023-09-19T07:25:08;6.77;;;5.57;;
40755;SDS011;26461;45.630;9.418;2023-09-19T07:28:14;6.47;;;4.00;;
40755;SDS011;26461;45.630;9.418;2023-09-19T07:31:23;6.33;;;4.90;;
40755;SDS011;26461;45.630;9.418;2023-09-19T07:34:34;7.30;;;4.80;;
40755;SDS011;26461;45.630;9.418;2023-09-19T07:37:40;7.87;;;5.30;;
40755;SDS011;26461;45.630;9.418;2023-09-19T07:40:45;6.77;;;5.10;;
40755;SDS011;26461;45.630;9.418;2023-09-19T07:43:51;7.90;;;5.03;;
40755;SDS011;26461;45.630;9.418;2023-09-19T07:46:57;8.20;;;5.30;;
40755;SDS011;26461;45.630;9.418;2023-09-19T07:50:07;12.57;;;5.20;;
40755;SDS011;26461;45.630;9.418;2023-09-19T07:53:19;7.93;;;5.63;;
40755;SDS011;26461;45.630;9.418;2023-09-19T07:56:29;8.27;;;5.13;;
40755;SDS011;26461;45.630;9.418;2023-09-19T07:59:39;7.17;;;5.60;;
40755;SDS011;26461;45.630;9.418;2023-09-19T08:02:55;6.93;;;5.80;;
40755;SDS011;26461;45.630;9.418;2023-09-19T08:06:01;9.40;;;5.43;;
40755;SDS011;26461;45.630;9.418;2023-09-19T08:09:09;9.17;;;6.53;;
40755;SDS011;26461;45.630;9.418;2023-09-19T08:12:36;8.87;;;6.97;;
40755;SDS011;26461;45.630;9.418;2023-09-19T08:15:46;12.20;;;8.70;;
40755;SDS011;26461;45.630;9.418;2023-09-19T08:18:52;11.47;;;8.50;;
40755;SDS011;26461;45.630;9.418;2023-09-19T08:21:59;10.80;;;7.73;;
40755;SDS011;26461;45.630;9.418;2023-09-19T08:25:05;12.60;;;9.47;;
40755;SDS011;26461;45.630;9.418;2023-09-19T08:28:12;15.40;;;9.73;;
40755;SDS011;26461;45.630;9.418;2023-09-19T08:31:22;15.53;;;9.73;;
40755;SDS011;26461;45.630;9.418;2023-09-19T08:34:28;16.20;;;9.20;;
40755;SDS011;26461;45.630;9.418;2023-09-19T08:37:35;16.30;;;9.00;;
40755;SDS011;26461;45.630;9.418;2023-09-19T08:40:40;17.73;;;9.70;;
40755;SDS011;26461;45.630;9.418;2023-09-19T08:43:58;14.20;;;9.13;;
40755;SDS011;26461;45.630;9.418;2023-09-19T08:47:11;18.00;;;10.00;;
40755;SDS011;26461;45.630;9.418;2023-09-19T08:50:28;14.93;;;8.23;;
40755;SDS011;26461;45.630;9.418;2023-09-19T08:53:52;16.60;;;8.33;;
40755;SDS011;26461;45.630;9.418;2023-09-19T08:57:09;19.00;;;8.50;;
40755;SDS011;26461;45.630;9.418;2023-09-19T09:00:16;15.20;;;9.40;;
40755;SDS011;26461;45.630;9.418;2023-09-19T09:03:23;16.77;;;9.07;;
40755;SDS011;26461;45.630;9.418;2023-09-19T09:06:30;13.00;;;8.63;;
40755;SDS011;26461;45.630;9.418;2023-09-19T09:09:37;13.07;;;9.60;;
40755;SDS011;26461;45.630;9.418;2023-09-19T09:12:47;12.30;;;9.40;;
40755;SDS011;26461;45.630;9.418;2023-09-19T09:15:56;14.93;;;8.20;;
40755;SDS011;26461;45.630;9.418;2023-09-19T09:19:24;18.20;;;11.90;;
40755;SDS011;26461;45.630;9.418;2023-09-19T09:22:30;18.23;;;11.87;;
40755;SDS011;26461;45.630;9.418;2023-09-19T09:29:12;13.80;;;8.70;;
40755;SDS011;26461;45.630;9.418;2023-09-19T09:32:36;13.23;;;8.80;;
40755;SDS011;26461;45.630;9.418;2023-09-19T09:35:55;12.37;;;8.40;;
40755;SDS011;26461;45.630;9.418;2023-09-19T09:39:03;19.60;;;10.90;;
40755;SDS011;26461;45.630;9.418;2023-09-19T09:42:30;13.37;;;9.27;;
40755;SDS011;26461;45.630;9.418;2023-09-19T09:45:36;16.83;;;8.87;;
40755;SDS011;26461;45.630;9.418;2023-09-19T09:48:42;17.23;;;9.57;;
40755;SDS011;26461;45.630;9.418;2023-09-19T09:55:11;9.20;;;8.40;;
40755;SDS011;26461;45.630;9.418;2023-09-19T09:58:17;16.60;;;8.97;;
40755;SDS011;26461;45.630;9.418;2023-09-19T10:01:28;14.43;;;7.93;;
40755;SDS011;26461;45.630;9.418;2023-09-19T10:04:52;16.90;;;7.90;;
40755;SDS011;26461;45.630;9.418;2023-09-19T10:08:17;14.07;;;7.93;;
40755;SDS011;26461;45.630;9.418;2023-09-19T10:11:23;11.77;;;7.10;;
40755;SDS011;26461;45.630;9.418;2023-09-19T10:14:35;11.70;;;8.67;;
40755;SDS011;26461;45.630;9.418;2023-09-19T10:17:48;19.53;;;8.80;;
40755;SDS011;26461;45.630;9.418;2023-09-19T10:20:54;11.60;;;8.47;;
40755;SDS011;26461;45.630;9.418;2023-09-19T10:24:02;10.20;;;6.87;;
40755;SDS011;26461;45.630;9.418;2023-09-19T10:27:12;13.50;;;7.73;;
40755;SDS011;26461;45.630;9.418;2023-09-19T10:30:25;11.50;;;6.47;;
40755;SDS011;26461;45.630;9.418;2023-09-19T10:33:34;13.53;;;8.10;;
40755;SDS011;26461;45.630;9.418;2023-09-19T10:36:47;10.00;;;7.97;;
40755;SDS011;26461;45.630;9.418;2023-09-19T10:40:01;13.57;;;8.30;;
40755;SDS011;26461;45.630;9.418;2023-09-19T10:43:11;11.10;;;7.40;;
40755;SDS011;26461;45.630;9.418;2023-09-19T10:46:23;12.67;;;7.57;;
40755;SDS011;26461;45.630;9.418;2023-09-19T10:49:30;17.77;;;9.67;;
40755;SDS011;26461;45.630;9.418;2023-09-19T10:52:44;16.97;;;12.00;;
40755;SDS011;26461;45.630;9.418;2023-09-19T10:55:54;15.43;;;11.00;;
40755;SDS011;26461;45.630;9.418;2023-09-19T10:59:12;13.67;;;10.43;;
40755;SDS011;26461;45.630;9.418;2023-09-19T11:02:30;11.73;;;9.97;;
40755;SDS011;26461;45.630;9.418;2023-09-19T11:05:36;12.53;;;9.53;;
40755;SDS011;26461;45.630;9.418;2023-09-19T11:16:02;18.10;;;11.90;;
40755;SDS011;26461;45.630;9.418;2023-09-19T11:19:11;14.93;;;11.20;;
40755;SDS011;26461;45.630;9.418;2023-09-19T11:22:17;11.90;;;9.17;;
40755;SDS011;26461;45.630;9.418;2023-09-19T11:28:47;10.80;;;9.20;;
40755;SDS011;26461;45.630;9.418;2023-09-19T11:31:58;16.73;;;10.40;;
40755;SDS011;26461;45.630;9.418;2023-09-19T11:35:07;11.03;;;9.10;;
40755;SDS011;26461;45.630;9.418;2023-09-19T11:38:14;14.83;;;8.80;;
40755;SDS011;26461;45.630;9.418;2023-09-19T11:41:40;10.17;;;7.83;;
40755;SDS011;26461;45.630;9.418;2023-09-19T11:44:48;16.20;;;9.10;;
40755;SDS011;26461;45.630;9.418;2023-09-19T11:47:56;13.77;;;7.73;;
40755;SDS011;26461;45.630;9.418;2023-09-19T11:51:07;11.63;;;8.20;;
40755;SDS011;26461;45.630;9.418;2023-09-19T11:54:28;12.83;;;8.20;;
40755;SDS011;26461;45.630;9.418;2023-09-19T11:57:36;14.17;;;7.83;;
40755;SDS011;26461;45.630;9.418;2023-09-19T12:00:45;13.07;;;6.23;;
40755;SDS011;26461;45.630;9.418;2023-09-19T12:03:52;11.33;;;6.87;;
40755;SDS011;26461;45.630;9.418;2023-09-19T12:07:01;10.60;;;6.93;;
40755;SDS011;26461;45.630;9.418;2023-09-19T12:10:07;8.73;;;6.57;;
40755;SDS011;26461;45.630;9.418;2023-09-19T12:13:19;7.47;;;6.30;;
40755;SDS011;26461;45.630;9.418;2023-09-19T12:16:25;7.30;;;6.53;;
40755;SDS011;26461;45.630;9.418;2023-09-19T12:19:35;10.80;;;6.93;;
40755;SDS011;26461;45.630;9.418;2023-09-19T12:22:44;10.97;;;7.10;;
40755;SDS011;26461;45.630;9.418;2023-09-19T12:25:51;8.00;;;6.10;;
40755;SDS011;26461;45.630;9.418;2023-09-19T12:28:58;10.70;;;7.80;;
40755;SDS011;26461;45.630;9.418;2023-09-19T12:32:06;10.70;;;6.47;;
40755;SDS011;26461;45.630;9.418;2023-09-19T12:35:27;10.47;;;6.40;;
40755;SDS011;26461;45.630;9.418;2023-09-19T12:38:37;11.83;;;6.97;;
40755;SDS011;26461;45.630;9.418;2023-09-19T12:41:51;8.93;;;6.70;;
40755;SDS011;26461;45.630;9.418;2023-09-19T12:45:01;10.77;;;7.87;;
40755;SDS011;26461;45.630;9.418;2023-09-19T12:53:57;13.17;;;7.33;;
40755;SDS011;26461;45.630;9.418;2023-09-19T12:57:07;13.20;;;8.80;;
40755;SDS011;26461;45.630;9.418;2023-09-19T13:00:17;9.07;;;6.23;;
40755;SDS011;26461;45.630;9.418;2023-09-19T13:03:31;8.97;;;6.90;;
40755;SDS011;26461;45.630;9.418;2023-09-19T13:06:39;16.57;;;7.70;;
40755;SDS011;26461;45.630;9.418;2023-09-19T13:10:02;10.27;;;7.37;;
40755;SDS011;26461;45.630;9.418;2023-09-19T13:13:23;8.50;;;6.70;;
40755;SDS011;26461;45.630;9.418;2023-09-19T13:16:31;9.60;;;6.80;;
40755;SDS011;26461;45.630;9.418;2023-09-19T13:19:46;10.83;;;5.70;;
40755;SDS011;26461;45.630;9.418;2023-09-19T13:23:03;10.20;;;7.00;;
40755;SDS011;26461;45.630;9.418;2023-09-19T13:26:19;14.43;;;7.47;;
40755;SDS011;26461;45.630;9.418;2023-09-19T13:29:29;14.87;;;6.37;;
40755;SDS011;26461;45.630;9.418;2023-09-19T13:32:39;11.20;;;7.03;;
40755;SDS011;26461;45.630;9.418;2023-09-19T13:35:50;7.10;;;6.73;;
40755;SDS011;26461;45.630;9.418;2023-09-19T13:39:00;9.67;;;6.17;;
40755;SDS011;26461;45.630;9.418;2023-09-19T13:42:10;8.57;;;6.80;;
40755;SDS011;26461;45.630;9.418;2023-09-19T13:45:21;5.80;;;5.50;;
40755;SDS011;26461;45.630;9.418;2023-09-19T13:48:33;13.93;;;6.90;;
40755;SDS011;26461;45.630;9.418;2023-09-19T13:51:44;11.00;;;7.10;;
40755;SDS011;26461;45.630;9.418;2023-09-19T13:54:55;11.37;;;6.20;;
40755;SDS011;26461;45.630;9.418;2023-09-19T13:58:08;8.13;;;5.37;;
40755;SDS011;26461;45.630;9.418;2023-09-19T14:01:20;6.33;;;5.77;;
40755;SDS011;26461;45.630;9.418;2023-09-19T14:04:30;8.27;;;6.20;;
40755;SDS011;26461;45.630;9.418;2023-09-19T14:07:41;7.00;;;5.33;;
40755;SDS011;26461;45.630;9.418;2023-09-19T14:10:51;6.53;;;5.80;;
40755;SDS011;26461;45.630;9.418;2023-09-19T14:14:01;7.87;;;5.70;;
40755;SDS011;26461;45.630;9.418;2023-09-19T14:17:10;7.87;;;5.33;;
40755;SDS011;26461;45.630;9.418;2023-09-19T14:20:16;9.20;;;5.70;;
40755;SDS011;26461;45.630;9.418;2023-09-19T14:23:25;6.37;;;5.30;;
40755;SDS011;26461;45.630;9.418;2023-09-19T14:26:30;14.27;;;6.53;;
40755;SDS011;26461;45.630;9.418;2023-09-19T14:29:40;14.33;;;6.23;;
40755;SDS011;26461;45.630;9.418;2023-09-19T14:32:45;8.23;;;5.50;;
40755;SDS011;26461;45.630;9.418;2023-09-19T14:35:55;7.20;;;4.63;;
40755;SDS011;26461;45.630;9.418;2023-09-19T14:39:00;4.83;;;4.23;;
40755;SDS011;26461;45.630;9.418;2023-09-19T14:42:05;6.40;;;4.60;;
40755;SDS011;26461;45.630;9.418;2023-09-19T14:45:10;5.43;;;4.40;;
40755;SDS011;26461;45.630;9.418;2023-09-19T14:48:21;8.60;;;4.57;;
40755;SDS011;26461;45.630;9.418;2023-09-19T14:51:34;6.50;;;5.10;;
40755;SDS011;26461;45.630;9.418;2023-09-19T14:54:44;7.57;;;6.13;;
40755;SDS011;26461;45.630;9.418;2023-09-19T14:57:49;6.67;;;5.17;;
40755;SDS011;26461;45.630;9.418;2023-09-19T15:01:05;7.53;;;4.20;;
40755;SDS011;26461;45.630;9.418;2023-09-19T15:04:15;7.20;;;5.07;;
40755;SDS011;26461;45.630;9.418;2023-09-19T15:07:25;8.87;;;4.73;;
40755;SDS011;26461;45.630;9.418;2023-09-19T15:10:38;9.30;;;6.17;;
40755;SDS011;26461;45.630;9.418;2023-09-19T15:13:44;9.67;;;4.73;;
40755;SDS011;26461;45.630;9.418;2023-09-19T15:16:55;12.70;;;5.60;;
40755;SDS011;26461;45.630;9.418;2023-09-19T15:20:00;8.50;;;5.20;;
40755;SDS011;26461;45.630;9.418;2023-09-19T15:23:11;6.17;;;4.67;;
40755;SDS011;26461;45.630;9.418;2023-09-19T15:26:22;5.97;;;4.90;;
40755;SDS011;26461;45.630;9.418;2023-09-19T15:29:29;7.87;;;5.70;;
40755;SDS011;26461;45.630;9.418;2023-09-19T15:32:34;7.60;;;5.60;;
40755;SDS011;26461;45.630;9.418;2023-09-19T15:35:44;5.83;;;5.17;;
40755;SDS011;26461;45.630;9.418;2023-09-19T15:42:05;7.40;;;5.87;;
40755;SDS011;26461;45.630;9.418;2023-09-19T15:45:15;6.17;;;4.90;;
40755;SDS011;26461;45.630;9.418;2023-09-19T15:48:28;8.57;;;4.20;;
40755;SDS011;26461;45.630;9.418;2023-09-19T15:51:39;7.73;;;4.30;;
40755;SDS011;26461;45.630;9.418;2023-09-19T15:54:49;4.53;;;4.07;;
40755;SDS011;26461;45.630;9.418;2023-09-19T15:58:01;5.10;;;4.40;;
40755;SDS011;26461;45.630;9.418;2023-09-19T16:01:12;14.10;;;5.00;;
40755;SDS011;26461;45.630;9.418;2023-09-19T16:04:17;5.37;;;5.13;;
40755;SDS011;26461;45.630;9.418;2023-09-19T16:07:22;5.00;;;4.60;;
40755;SDS011;26461;45.630;9.418;2023-09-19T16:10:28;6.83;;;3.93;;
40755;SDS011;26461;45.630;9.418;2023-09-19T16:13:38;7.40;;;4.97;;
40755;SDS011;26461;45.630;9.418;2023-09-19T16:16:45;4.90;;;4.07;;
40755;SDS011;26461;45.630;9.418;2023-09-19T16:19:50;9.13;;;5.00;;
40755;SDS011;26461;45.630;9.418;2023-09-19T16:23:00;6.07;;;4.60;;
40755;SDS011;26461;45.630;9.418;2023-09-19T16:26:06;5.33;;;4.07;;
40755;SDS011;26461;45.630;9.418;2023-09-19T16:29:18;11.43;;;5.00;;
40755;SDS011;26461;45.630;9.418;2023-09-19T16:32:28;7.07;;;4.30;;
40755;SDS011;26461;45.630;9.418;2023-09-19T16:35:36;5.07;;;4.20;;
40755;SDS011;26461;45.630;9.418;2023-09-19T16:38:47;5.47;;;4.03;;
40755;SDS011;26461;45.630;9.418;2023-09-19T16:41:52;6.30;;;4.50;;
40755;SDS011;26461;45.630;9.418;2023-09-19T16:44:57;6.13;;;5.00;;
40755;SDS011;26461;45.630;9.418;2023-09-19T16:48:08;5.47;;;4.20;;
40755;SDS011;26461;45.630;9.418;2023-09-19T16:51:18;4.50;;;3.87;;
40755;SDS011;26461;45.630;9.418;2023-09-19T16:54:30;7.93;;;4.67;;
40755;SDS011;26461;45.630;9.418;2023-09-19T16:57:40;6.53;;;5.47;;
40755;SDS011;26461;45.630;9.418;2023-09-19T17:00:46;9.23;;;4.23;;
40755;SDS011;26461;45.630;9.418;2023-09-19T17:03:52;9.27;;;4.73;;
40755;SDS011;26461;45.630;9.418;2023-09-19T17:07:03;5.77;;;4.63;;
40755;SDS011;26461;45.630;9.418;2023-09-19T17:10:08;4.07;;;3.77;;
40755;SDS011;26461;45.630;9.418;2023-09-19T17:13:13;4.87;;;4.57;;
40755;SDS011;26461;45.630;9.418;2023-09-19T17:16:18;6.17;;;4.80;;
40755;SDS011;26461;45.630;9.418;2023-09-19T17:19:30;6.63;;;4.10;;
40755;SDS011;26461;45.630;9.418;2023-09-19T17:22:35;5.43;;;4.60;;
40755;SDS011;26461;45.630;9.418;2023-09-19T17:25:40;6.97;;;4.23;;
40755;SDS011;26461;45.630;9.418;2023-09-19T17:28:45;7.83;;;5.00;;
40755;SDS011;26461;45.630;9.418;2023-09-19T17:31:55;8.50;;;4.50;;
40755;SDS011;26461;45.630;9.418;2023-09-19T17:35:00;6.50;;;5.27;;
40755;SDS011;26461;45.630;9.418;2023-09-19T17:38:05;8.93;;;5.20;;
40755;SDS011;26461;45.630;9.418;2023-09-19T17:41:10;6.37;;;4.17;;
40755;SDS011;26461;45.630;9.418;2023-09-19T17:44:22;7.00;;;5.00;;
40755;SDS011;26461;45.630;9.418;2023-09-19T17:47:27;6.77;;;5.57;;
40755;SDS011;26461;45.630;9.418;2023-09-19T17:50:37;7.03;;;5.13;;
40755;SDS011;26461;45.630;9.418;2023-09-19T17:53:48;10.20;;;5.30;;
40755;SDS011;26461;45.630;9.418;2023-09-19T17:56:53;8.40;;;5.50;;
40755;SDS011;26461;45.630;9.418;2023-09-19T18:00:04;7.00;;;5.83;;
40755;SDS011;26461;45.630;9.418;2023-09-19T18:03:17;6.43;;;5.13;;
40755;SDS011;26461;45.630;9.418;2023-09-19T18:06:23;10.23;;;6.20;;
40755;SDS011;26461;45.630;9.418;2023-09-19T18:09:34;7.30;;;5.47;;
40755;SDS011;26461;45.630;9.418;2023-09-19T18:12:45;5.90;;;4.67;;
40755;SDS011;26461;45.630;9.418;2023-09-19T18:15:56;8.53;;;5.40;;
40755;SDS011;26461;45.630;9.418;2023-09-19T18:19:05;11.20;;;6.40;;
40755;SDS011;26461;45.630;9.418;2023-09-19T18:22:10;11.03;;;6.87;;
40755;SDS011;26461;45.630;9.418;2023-09-19T18:25:15;14.43;;;5.60;;
40755;SDS011;26461;45.630;9.418;2023-09-19T18:28:21;7.37;;;5.93;;
40755;SDS011;26461;45.630;9.418;2023-09-19T18:31:26;8.10;;;5.87;;
40755;SDS011;26461;45.630;9.418;2023-09-19T18:34:37;11.23;;;7.47;;
40755;SDS011;26461;45.630;9.418;2023-09-19T18:37:43;9.90;;;6.83;;
40755;SDS011;26461;45.630;9.418;2023-09-19T18:40:54;7.50;;;6.40;;
40755;SDS011;26461;45.630;9.418;2023-09-19T18:44:05;19.63;;;7.20;;
40755;SDS011;26461;45.630;9.418;2023-09-19T18:47:14;8.83;;;6.63;;
40755;SDS011;26461;45.630;9.418;2023-09-19T18:50:19;14.50;;;7.33;;
40755;SDS011;26461;45.630;9.418;2023-09-19T18:53:30;11.40;;;8.27;;
40755;SDS011;26461;45.630;9.418;2023-09-19T18:56:35;11.80;;;7.73;;
40755;SDS011;26461;45.630;9.418;2023-09-19T18:59:41;9.10;;;7.73;;
40755;SDS011;26461;45.630;9.418;2023-09-19T19:02:53;12.13;;;7.73;;
40755;SDS011;26461;45.630;9.418;2023-09-19T19:05:57;6.87;;;5.70;;
40755;SDS011;26461;45.630;9.418;2023-09-19T19:09:06;11.37;;;7.73;;
40755;SDS011;26461;45.630;9.418;2023-09-19T19:12:13;7.63;;;6.57;;
40755;SDS011;26461;45.630;9.418;2023-09-19T19:15:24;10.23;;;8.13;;
